sensor_id;sensor_type;location;lat;lon;timestamp;P1;durP1;ratioP1;P2;durP2;ratioP2
70985;SDS011;58645;43.068;25.610;2022-08-03T00:01:31;4.70;;;3.08;;
70985;SDS011;58645;43.068;25.610;2022-08-03T00:03:58;5.18;;;3.55;;
70985;SDS011;58645;43.068;25.610;2022-08-03T00:06:24;5.60;;;3.28;;
70985;SDS011;58645;43.068;25.610;2022-08-03T00:08:49;4.78;;;3.60;;
70985;SDS011;58645;43.068;25.610;2022-08-03T00:11:15;7.57;;;3.60;;
70985;SDS011;58645;43.068;25.610;2022-08-03T00:13:41;5.28;;;2.92;;
70985;SDS011;58645;43.068;25.610;2022-08-03T00:16:07;3.50;;;2.30;;
70985;SDS011;58645;43.068;25.610;2022-08-03T00:20:58;5.25;;;2.80;;
70985;SDS011;58645;43.068;25.610;2022-08-03T00:23:24;4.03;;;2.80;;
70985;SDS011;58645;43.068;25.610;2022-08-03T00:25:50;5.10;;;2.92;;
70985;SDS011;58645;43.068;25.610;2022-08-03T00:28:16;3.97;;;2.90;;
70985;SDS011;58645;43.068;25.610;2022-08-03T00:30:41;6.93;;;3.78;;
70985;SDS011;58645;43.068;25.610;2022-08-03T00:33:07;5.75;;;3.78;;
70985;SDS011;58645;43.068;25.610;2022-08-03T00:35:34;5.53;;;3.05;;
70985;SDS011;58645;43.068;25.610;2022-08-03T00:38:00;7.00;;;2.83;;
70985;SDS011;58645;43.068;25.610;2022-08-03T00:40:26;3.85;;;2.70;;
70985;SDS011;58645;43.068;25.610;2022-08-03T00:43:02;4.15;;;2.42;;
70985;SDS011;58645;43.068;25.610;2022-08-03T00:45:30;4.30;;;3.00;;
70985;SDS011;58645;43.068;25.610;2022-08-03T00:47:58;3.72;;;3.00;;
70985;SDS011;58645;43.068;25.610;2022-08-03T00:50:25;6.25;;;3.70;;
70985;SDS011;58645;43.068;25.610;2022-08-03T00:52:53;6.70;;;4.13;;
70985;SDS011;58645;43.068;25.610;2022-08-03T00:55:20;8.45;;;5.55;;
70985;SDS011;58645;43.068;25.610;2022-08-03T00:57:46;7.38;;;5.45;;
70985;SDS011;58645;43.068;25.610;2022-08-03T01:00:14;7.20;;;5.20;;
70985;SDS011;58645;43.068;25.610;2022-08-03T01:02:42;9.40;;;4.88;;
70985;SDS011;58645;43.068;25.610;2022-08-03T01:13:30;4.82;;;3.33;;
70985;SDS011;58645;43.068;25.610;2022-08-03T01:16:14;5.20;;;3.40;;
70985;SDS011;58645;43.068;25.610;2022-08-03T01:22:22;5.50;;;3.45;;
70985;SDS011;58645;43.068;25.610;2022-08-03T01:30:47;4.95;;;2.03;;
70985;SDS011;58645;43.068;25.610;2022-08-03T01:35:46;3.72;;;2.03;;
70985;SDS011;58645;43.068;25.610;2022-08-03T01:38:23;3.30;;;1.95;;
70985;SDS011;58645;43.068;25.610;2022-08-03T01:40:52;3.78;;;2.15;;
70985;SDS011;58645;43.068;25.610;2022-08-03T01:43:20;2.83;;;1.75;;
70985;SDS011;58645;43.068;25.610;2022-08-03T01:45:52;3.75;;;1.92;;
70985;SDS011;58645;43.068;25.610;2022-08-03T01:48:19;2.72;;;2.15;;
70985;SDS011;58645;43.068;25.610;2022-08-03T01:53:13;3.17;;;2.28;;
70985;SDS011;58645;43.068;25.610;2022-08-03T01:55:42;4.47;;;2.38;;
70985;SDS011;58645;43.068;25.610;2022-08-03T01:58:10;3.83;;;2.40;;
70985;SDS011;58645;43.068;25.610;2022-08-03T02:00:38;6.88;;;4.05;;
70985;SDS011;58645;43.068;25.610;2022-08-03T02:03:05;7.88;;;4.38;;
70985;SDS011;58645;43.068;25.610;2022-08-03T02:05:32;8.57;;;4.63;;
70985;SDS011;58645;43.068;25.610;2022-08-03T02:08:02;5.93;;;3.90;;
70985;SDS011;58645;43.068;25.610;2022-08-03T02:10:30;5.30;;;3.88;;
70985;SDS011;58645;43.068;25.610;2022-08-03T02:12:58;7.38;;;3.47;;
70985;SDS011;58645;43.068;25.610;2022-08-03T02:15:25;4.80;;;3.13;;
70985;SDS011;58645;43.068;25.610;2022-08-03T02:17:52;5.72;;;3.05;;
70985;SDS011;58645;43.068;25.610;2022-08-03T02:20:19;4.77;;;2.70;;
70985;SDS011;58645;43.068;25.610;2022-08-03T02:22:45;3.75;;;2.50;;
70985;SDS011;58645;43.068;25.610;2022-08-03T02:25:13;5.55;;;3.30;;
70985;SDS011;58645;43.068;25.610;2022-08-03T02:27:42;4.78;;;2.72;;
70985;SDS011;58645;43.068;25.610;2022-08-03T02:30:15;5.13;;;2.53;;
70985;SDS011;58645;43.068;25.610;2022-08-03T02:32:45;4.93;;;2.70;;
70985;SDS011;58645;43.068;25.610;2022-08-03T02:35:16;4.93;;;3.00;;
70985;SDS011;58645;43.068;25.610;2022-08-03T02:37:45;5.18;;;3.00;;
70985;SDS011;58645;43.068;25.610;2022-08-03T02:40:13;3.92;;;2.60;;
70985;SDS011;58645;43.068;25.610;2022-08-03T02:42:41;5.10;;;3.13;;
70985;SDS011;58645;43.068;25.610;2022-08-03T02:45:09;5.45;;;3.28;;
70985;SDS011;58645;43.068;25.610;2022-08-03T02:47:38;4.72;;;2.75;;
70985;SDS011;58645;43.068;25.610;2022-08-03T02:50:05;4.28;;;2.92;;
70985;SDS011;58645;43.068;25.610;2022-08-03T02:52:36;5.43;;;2.88;;
70985;SDS011;58645;43.068;25.610;2022-08-03T02:55:04;4.45;;;3.00;;
70985;SDS011;58645;43.068;25.610;2022-08-03T02:57:32;3.25;;;2.47;;
70985;SDS011;58645;43.068;25.610;2022-08-03T02:59:59;5.25;;;2.85;;
70985;SDS011;58645;43.068;25.610;2022-08-03T03:02:26;4.70;;;3.35;;
70985;SDS011;58645;43.068;25.610;2022-08-03T03:04:53;4.78;;;3.15;;
70985;SDS011;58645;43.068;25.610;2022-08-03T03:07:20;9.25;;;3.80;;
70985;SDS011;58645;43.068;25.610;2022-08-03T03:09:47;5.93;;;4.30;;
70985;SDS011;58645;43.068;25.610;2022-08-03T03:12:13;9.25;;;4.35;;
70985;SDS011;58645;43.068;25.610;2022-08-03T03:14:41;3.90;;;2.40;;
70985;SDS011;58645;43.068;25.610;2022-08-03T03:17:08;4.85;;;2.78;;
70985;SDS011;58645;43.068;25.610;2022-08-03T03:19:35;5.28;;;2.60;;
70985;SDS011;58645;43.068;25.610;2022-08-03T03:22:03;5.95;;;3.58;;
70985;SDS011;58645;43.068;25.610;2022-08-03T03:24:31;7.40;;;4.32;;
70985;SDS011;58645;43.068;25.610;2022-08-03T03:26:58;11.13;;;8.02;;
70985;SDS011;58645;43.068;25.610;2022-08-03T03:29:25;8.38;;;6.40;;
70985;SDS011;58645;43.068;25.610;2022-08-03T03:31:51;6.35;;;4.50;;
70985;SDS011;58645;43.068;25.610;2022-08-03T03:36:43;6.10;;;4.57;;
70985;SDS011;58645;43.068;25.610;2022-08-03T03:39:08;9.40;;;6.68;;
70985;SDS011;58645;43.068;25.610;2022-08-03T03:41:35;10.85;;;8.15;;
70985;SDS011;58645;43.068;25.610;2022-08-03T03:44:01;11.98;;;6.70;;
70985;SDS011;58645;43.068;25.610;2022-08-03T03:46:27;9.65;;;6.63;;
70985;SDS011;58645;43.068;25.610;2022-08-03T03:48:53;9.20;;;7.05;;
70985;SDS011;58645;43.068;25.610;2022-08-03T03:51:18;10.43;;;7.38;;
70985;SDS011;58645;43.068;25.610;2022-08-03T03:57:39;9.20;;;5.43;;
70985;SDS011;58645;43.068;25.610;2022-08-03T04:00:05;7.50;;;5.25;;
70985;SDS011;58645;43.068;25.610;2022-08-03T04:02:31;5.60;;;3.53;;
70985;SDS011;58645;43.068;25.610;2022-08-03T04:04:57;6.32;;;3.85;;
70985;SDS011;58645;43.068;25.610;2022-08-03T04:07:45;5.28;;;3.30;;
70985;SDS011;58645;43.068;25.610;2022-08-03T04:13:38;10.43;;;5.32;;
70985;SDS011;58645;43.068;25.610;2022-08-03T04:16:15;6.53;;;4.82;;
70985;SDS011;58645;43.068;25.610;2022-08-03T04:18:43;6.07;;;3.75;;
70985;SDS011;58645;43.068;25.610;2022-08-03T04:21:14;5.35;;;4.18;;
70985;SDS011;58645;43.068;25.610;2022-08-03T04:23:43;6.40;;;3.63;;
70985;SDS011;58645;43.068;25.610;2022-08-03T04:26:13;5.47;;;3.28;;
70985;SDS011;58645;43.068;25.610;2022-08-03T04:28:43;4.05;;;3.13;;
70985;SDS011;58645;43.068;25.610;2022-08-03T04:31:10;7.47;;;3.22;;
70985;SDS011;58645;43.068;25.610;2022-08-03T04:33:37;6.00;;;4.32;;
70985;SDS011;58645;43.068;25.610;2022-08-03T04:36:05;6.15;;;4.25;;
70985;SDS011;58645;43.068;25.610;2022-08-03T04:38:43;5.25;;;3.33;;
70985;SDS011;58645;43.068;25.610;2022-08-03T04:41:25;4.00;;;3.08;;
70985;SDS011;58645;43.068;25.610;2022-08-03T04:43:53;5.25;;;3.22;;
70985;SDS011;58645;43.068;25.610;2022-08-03T04:46:21;4.22;;;3.00;;
70985;SDS011;58645;43.068;25.610;2022-08-03T04:48:50;4.55;;;3.00;;
70985;SDS011;58645;43.068;25.610;2022-08-03T04:51:16;3.15;;;2.35;;
70985;SDS011;58645;43.068;25.610;2022-08-03T04:53:42;2.97;;;2.33;;
70985;SDS011;58645;43.068;25.610;2022-08-03T04:58:34;4.18;;;2.10;;
70985;SDS011;58645;43.068;25.610;2022-08-03T05:01:00;3.90;;;2.10;;
70985;SDS011;58645;43.068;25.610;2022-08-03T05:03:26;2.38;;;1.85;;
70985;SDS011;58645;43.068;25.610;2022-08-03T05:05:52;3.00;;;2.22;;
70985;SDS011;58645;43.068;25.610;2022-08-03T05:08:19;2.45;;;2.17;;
70985;SDS011;58645;43.068;25.610;2022-08-03T05:10:45;2.67;;;2.08;;
70985;SDS011;58645;43.068;25.610;2022-08-03T05:13:11;3.50;;;2.30;;
70985;SDS011;58645;43.068;25.610;2022-08-03T05:15:38;3.67;;;2.08;;
70985;SDS011;58645;43.068;25.610;2022-08-03T05:18:07;3.95;;;2.00;;
70985;SDS011;58645;43.068;25.610;2022-08-03T05:20:33;2.70;;;2.00;;
70985;SDS011;58645;43.068;25.610;2022-08-03T05:22:58;5.10;;;4.10;;
70985;SDS011;58645;43.068;25.610;2022-08-03T05:25:26;5.88;;;3.92;;
70985;SDS011;58645;43.068;25.610;2022-08-03T05:27:52;6.50;;;5.10;;
70985;SDS011;58645;43.068;25.610;2022-08-03T05:32:43;5.85;;;3.65;;
70985;SDS011;58645;43.068;25.610;2022-08-03T05:37:35;7.10;;;5.18;;
70985;SDS011;58645;43.068;25.610;2022-08-03T05:42:27;4.40;;;3.95;;
70985;SDS011;58645;43.068;25.610;2022-08-03T05:47:18;3.13;;;2.47;;
70985;SDS011;58645;43.068;25.610;2022-08-03T05:49:44;4.10;;;2.65;;
70985;SDS011;58645;43.068;25.610;2022-08-03T05:52:10;3.20;;;2.30;;
70985;SDS011;58645;43.068;25.610;2022-08-03T05:54:35;5.32;;;2.67;;
70985;SDS011;58645;43.068;25.610;2022-08-03T05:57:01;4.50;;;3.25;;
70985;SDS011;58645;43.068;25.610;2022-08-03T05:59:27;3.15;;;1.90;;
70985;SDS011;58645;43.068;25.610;2022-08-03T06:01:53;6.15;;;2.50;;
70985;SDS011;58645;43.068;25.610;2022-08-03T06:04:19;3.50;;;2.92;;
70985;SDS011;58645;43.068;25.610;2022-08-03T06:06:44;8.20;;;5.88;;
70985;SDS011;58645;43.068;25.610;2022-08-03T06:09:10;7.60;;;4.78;;
70985;SDS011;58645;43.068;25.610;2022-08-03T06:11:36;5.50;;;3.40;;
70985;SDS011;58645;43.068;25.610;2022-08-03T06:14:02;5.72;;;3.50;;
70985;SDS011;58645;43.068;25.610;2022-08-03T06:16:28;6.30;;;3.90;;
70985;SDS011;58645;43.068;25.610;2022-08-03T06:18:54;3.33;;;2.80;;
70985;SDS011;58645;43.068;25.610;2022-08-03T06:21:19;3.67;;;3.10;;
70985;SDS011;58645;43.068;25.610;2022-08-03T06:23:45;5.20;;;2.75;;
70985;SDS011;58645;43.068;25.610;2022-08-03T06:26:11;4.28;;;2.70;;
70985;SDS011;58645;43.068;25.610;2022-08-03T06:28:38;2.63;;;2.22;;
70985;SDS011;58645;43.068;25.610;2022-08-03T06:31:04;2.80;;;2.00;;
70985;SDS011;58645;43.068;25.610;2022-08-03T06:33:30;3.15;;;2.00;;
70985;SDS011;58645;43.068;25.610;2022-08-03T06:35:56;6.55;;;2.78;;
70985;SDS011;58645;43.068;25.610;2022-08-03T06:38:22;5.97;;;2.63;;
70985;SDS011;58645;43.068;25.610;2022-08-03T06:40:47;5.10;;;1.65;;
70985;SDS011;58645;43.068;25.610;2022-08-03T06:43:14;1.90;;;1.30;;
70985;SDS011;58645;43.068;25.610;2022-08-03T06:45:40;2.95;;;1.35;;
70985;SDS011;58645;43.068;25.610;2022-08-03T06:48:07;4.70;;;1.15;;
70985;SDS011;58645;43.068;25.610;2022-08-03T06:50:34;2.70;;;1.17;;
70985;SDS011;58645;43.068;25.610;2022-08-03T06:53:01;1.83;;;0.90;;
70985;SDS011;58645;43.068;25.610;2022-08-03T06:55:28;2.78;;;1.35;;
70985;SDS011;58645;43.068;25.610;2022-08-03T06:57:55;4.18;;;1.30;;
70985;SDS011;58645;43.068;25.610;2022-08-03T07:00:20;3.88;;;1.45;;
70985;SDS011;58645;43.068;25.610;2022-08-03T07:02:46;1.73;;;1.42;;
70985;SDS011;58645;43.068;25.610;2022-08-03T07:05:13;4.18;;;1.42;;
70985;SDS011;58645;43.068;25.610;2022-08-03T07:07:39;4.13;;;1.20;;
70985;SDS011;58645;43.068;25.610;2022-08-03T07:10:05;2.38;;;1.25;;
70985;SDS011;58645;43.068;25.610;2022-08-03T07:12:36;2.88;;;0.95;;
70985;SDS011;58645;43.068;25.610;2022-08-03T07:15:03;2.25;;;1.02;;
70985;SDS011;58645;43.068;25.610;2022-08-03T07:17:30;4.43;;;1.52;;
70985;SDS011;58645;43.068;25.610;2022-08-03T07:19:58;3.58;;;1.40;;
70985;SDS011;58645;43.068;25.610;2022-08-03T07:22:24;2.15;;;1.30;;
70985;SDS011;58645;43.068;25.610;2022-08-03T07:24:50;1.20;;;1.10;;
70985;SDS011;58645;43.068;25.610;2022-08-03T07:27:16;3.17;;;1.25;;
70985;SDS011;58645;43.068;25.610;2022-08-03T07:29:42;1.92;;;1.23;;
70985;SDS011;58645;43.068;25.610;2022-08-03T07:32:07;2.08;;;1.27;;
70985;SDS011;58645;43.068;25.610;2022-08-03T07:34:33;4.53;;;1.10;;
70985;SDS011;58645;43.068;25.610;2022-08-03T07:36:59;2.83;;;1.02;;
70985;SDS011;58645;43.068;25.610;2022-08-03T07:39:25;4.22;;;1.20;;
70985;SDS011;58645;43.068;25.610;2022-08-03T07:41:50;2.03;;;1.23;;
70985;SDS011;58645;43.068;25.610;2022-08-03T07:44:19;1.85;;;1.15;;
70985;SDS011;58645;43.068;25.610;2022-08-03T07:46:45;2.33;;;1.10;;
70985;SDS011;58645;43.068;25.610;2022-08-03T07:49:11;4.13;;;1.23;;
70985;SDS011;58645;43.068;25.610;2022-08-03T07:51:37;2.00;;;1.30;;
70985;SDS011;58645;43.068;25.610;2022-08-03T07:54:04;2.10;;;1.17;;
70985;SDS011;58645;43.068;25.610;2022-08-03T07:56:30;1.40;;;1.05;;
70985;SDS011;58645;43.068;25.610;2022-08-03T07:58:56;3.45;;;1.20;;
70985;SDS011;58645;43.068;25.610;2022-08-03T08:01:22;1.88;;;1.15;;
70985;SDS011;58645;43.068;25.610;2022-08-03T08:03:48;3.35;;;1.25;;
70985;SDS011;58645;43.068;25.610;2022-08-03T08:06:15;2.08;;;1.15;;
70985;SDS011;58645;43.068;25.610;2022-08-03T08:08:41;2.25;;;1.35;;
70985;SDS011;58645;43.068;25.610;2022-08-03T08:11:07;1.48;;;1.15;;
70985;SDS011;58645;43.068;25.610;2022-08-03T08:13:33;2.20;;;1.50;;
70985;SDS011;58645;43.068;25.610;2022-08-03T08:15:59;2.00;;;1.50;;
70985;SDS011;58645;43.068;25.610;2022-08-03T08:18:25;1.98;;;1.40;;
70985;SDS011;58645;43.068;25.610;2022-08-03T08:20:54;2.13;;;1.23;;
70985;SDS011;58645;43.068;25.610;2022-08-03T08:23:20;1.70;;;1.30;;
70985;SDS011;58645;43.068;25.610;2022-08-03T08:25:52;2.05;;;1.50;;
70985;SDS011;58645;43.068;25.610;2022-08-03T08:28:18;1.42;;;1.23;;
70985;SDS011;58645;43.068;25.610;2022-08-03T08:30:45;4.00;;;1.23;;
70985;SDS011;58645;43.068;25.610;2022-08-03T08:33:12;2.65;;;1.45;;
70985;SDS011;58645;43.068;25.610;2022-08-03T08:35:38;1.75;;;1.42;;
70985;SDS011;58645;43.068;25.610;2022-08-03T08:38:04;2.25;;;1.25;;
70985;SDS011;58645;43.068;25.610;2022-08-03T08:40:30;2.47;;;1.42;;
70985;SDS011;58645;43.068;25.610;2022-08-03T08:42:56;2.20;;;1.45;;
70985;SDS011;58645;43.068;25.610;2022-08-03T08:45:21;1.83;;;1.40;;
70985;SDS011;58645;43.068;25.610;2022-08-03T08:47:48;3.40;;;1.55;;
70985;SDS011;58645;43.068;25.610;2022-08-03T08:50:17;1.73;;;1.42;;
70985;SDS011;58645;43.068;25.610;2022-08-03T08:52:45;3.45;;;1.52;;
70985;SDS011;58645;43.068;25.610;2022-08-03T08:57:51;3.30;;;1.70;;
70985;SDS011;58645;43.068;25.610;2022-08-03T09:00:23;2.83;;;1.27;;
70985;SDS011;58645;43.068;25.610;2022-08-03T09:02:48;3.40;;;1.42;;
70985;SDS011;58645;43.068;25.610;2022-08-03T09:05:18;1.90;;;1.52;;
70985;SDS011;58645;43.068;25.610;2022-08-03T09:07:45;1.55;;;1.40;;
70985;SDS011;58645;43.068;25.610;2022-08-03T09:10:12;2.25;;;1.80;;
70985;SDS011;58645;43.068;25.610;2022-08-03T09:12:42;2.17;;;1.38;;
70985;SDS011;58645;43.068;25.610;2022-08-03T09:15:42;2.17;;;1.70;;
70985;SDS011;58645;43.068;25.610;2022-08-03T09:18:03;2.10;;;1.52;;
70985;SDS011;58645;43.068;25.610;2022-08-03T09:20:30;2.05;;;1.52;;
70985;SDS011;58645;43.068;25.610;2022-08-03T09:23:01;4.10;;;1.52;;
70985;SDS011;58645;43.068;25.610;2022-08-03T09:25:32;2.38;;;1.83;;
70985;SDS011;58645;43.068;25.610;2022-08-03T09:30:32;3.67;;;1.50;;
70985;SDS011;58645;43.068;25.610;2022-08-03T09:33:04;2.35;;;1.42;;
70985;SDS011;58645;43.068;25.610;2022-08-03T09:35:31;1.60;;;1.30;;
70985;SDS011;58645;43.068;25.610;2022-08-03T09:40:42;1.88;;;1.35;;
70985;SDS011;58645;43.068;25.610;2022-08-03T09:43:10;4.18;;;1.48;;
70985;SDS011;58645;43.068;25.610;2022-08-03T09:45:36;1.77;;;1.33;;
70985;SDS011;58645;43.068;25.610;2022-08-03T09:51:01;4.53;;;1.30;;
70985;SDS011;58645;43.068;25.610;2022-08-03T09:53:28;2.40;;;1.73;;
70985;SDS011;58645;43.068;25.610;2022-08-03T09:55:55;3.00;;;1.58;;
70985;SDS011;58645;43.068;25.610;2022-08-03T09:58:23;2.40;;;1.27;;
70985;SDS011;58645;43.068;25.610;2022-08-03T10:00:57;2.67;;;1.40;;
70985;SDS011;58645;43.068;25.610;2022-08-03T10:03:25;5.72;;;1.50;;
70985;SDS011;58645;43.068;25.610;2022-08-03T10:05:53;1.92;;;1.30;;
70985;SDS011;58645;43.068;25.610;2022-08-03T10:08:19;1.80;;;1.25;;
70985;SDS011;58645;43.068;25.610;2022-08-03T10:10:47;2.17;;;1.42;;
70985;SDS011;58645;43.068;25.610;2022-08-03T10:13:14;1.83;;;1.33;;
70985;SDS011;58645;43.068;25.610;2022-08-03T10:15:41;1.83;;;1.13;;
70985;SDS011;58645;43.068;25.610;2022-08-03T10:18:07;1.98;;;1.35;;
70985;SDS011;58645;43.068;25.610;2022-08-03T10:20:35;2.00;;;1.70;;
70985;SDS011;58645;43.068;25.610;2022-08-03T10:23:03;1.48;;;1.38;;
70985;SDS011;58645;43.068;25.610;2022-08-03T10:25:30;2.55;;;1.45;;
70985;SDS011;58645;43.068;25.610;2022-08-03T10:27:58;1.75;;;1.50;;
70985;SDS011;58645;43.068;25.610;2022-08-03T10:30:28;2.78;;;1.35;;
70985;SDS011;58645;43.068;25.610;2022-08-03T10:33:00;2.05;;;1.40;;
70985;SDS011;58645;43.068;25.610;2022-08-03T10:40:26;1.85;;;1.45;;
70985;SDS011;58645;43.068;25.610;2022-08-03T10:42:55;3.00;;;1.38;;
70985;SDS011;58645;43.068;25.610;2022-08-03T10:45:24;1.60;;;1.02;;
70985;SDS011;58645;43.068;25.610;2022-08-03T10:47:51;1.63;;;1.23;;
70985;SDS011;58645;43.068;25.610;2022-08-03T10:50:18;1.70;;;1.27;;
70985;SDS011;58645;43.068;25.610;2022-08-03T10:55:44;2.35;;;1.33;;
70985;SDS011;58645;43.068;25.610;2022-08-03T11:01:02;1.88;;;1.13;;
70985;SDS011;58645;43.068;25.610;2022-08-03T11:03:29;2.63;;;1.23;;
70985;SDS011;58645;43.068;25.610;2022-08-03T11:06:14;1.50;;;1.17;;
70985;SDS011;58645;43.068;25.610;2022-08-03T11:08:43;2.17;;;1.38;;
70985;SDS011;58645;43.068;25.610;2022-08-03T11:16:49;2.67;;;1.55;;
70985;SDS011;58645;43.068;25.610;2022-08-03T11:22:46;1.65;;;1.25;;
70985;SDS011;58645;43.068;25.610;2022-08-03T11:25:13;2.63;;;1.55;;
70985;SDS011;58645;43.068;25.610;2022-08-03T11:27:40;1.90;;;1.02;;
70985;SDS011;58645;43.068;25.610;2022-08-03T11:41:03;3.03;;;1.30;;
70985;SDS011;58645;43.068;25.610;2022-08-03T11:46:05;2.38;;;1.35;;
70985;SDS011;58645;43.068;25.610;2022-08-03T11:50:58;2.22;;;1.25;;
70985;SDS011;58645;43.068;25.610;2022-08-03T11:53:28;1.58;;;1.20;;
70985;SDS011;58645;43.068;25.610;2022-08-03T11:55:57;3.42;;;1.27;;
70985;SDS011;58645;43.068;25.610;2022-08-03T11:58:24;4.30;;;1.42;;
70985;SDS011;58645;43.068;25.610;2022-08-03T12:00:50;2.00;;;1.13;;
70985;SDS011;58645;43.068;25.610;2022-08-03T12:03:17;3.05;;;1.23;;
70985;SDS011;58645;43.068;25.610;2022-08-03T12:05:50;1.50;;;1.17;;
70985;SDS011;58645;43.068;25.610;2022-08-03T12:08:28;3.47;;;1.42;;
70985;SDS011;58645;43.068;25.610;2022-08-03T12:10:59;1.98;;;1.27;;
70985;SDS011;58645;43.068;25.610;2022-08-03T12:16:28;2.20;;;1.30;;
70985;SDS011;58645;43.068;25.610;2022-08-03T12:18:54;1.73;;;1.30;;
70985;SDS011;58645;43.068;25.610;2022-08-03T12:21:20;2.25;;;1.23;;
70985;SDS011;58645;43.068;25.610;2022-08-03T12:23:48;8.75;;;1.40;;
70985;SDS011;58645;43.068;25.610;2022-08-03T12:26:14;6.35;;;1.50;;
70985;SDS011;58645;43.068;25.610;2022-08-03T12:28:47;5.18;;;1.63;;
70985;SDS011;58645;43.068;25.610;2022-08-03T12:31:13;1.35;;;1.17;;
70985;SDS011;58645;43.068;25.610;2022-08-03T12:36:27;2.42;;;1.40;;
70985;SDS011;58645;43.068;25.610;2022-08-03T12:39:00;3.47;;;1.15;;
70985;SDS011;58645;43.068;25.610;2022-08-03T12:41:31;1.50;;;1.10;;
70985;SDS011;58645;43.068;25.610;2022-08-03T12:43:59;1.67;;;1.10;;
70985;SDS011;58645;43.068;25.610;2022-08-03T12:46:33;3.00;;;1.33;;
70985;SDS011;58645;43.068;25.610;2022-08-03T12:49:10;2.03;;;1.13;;
70985;SDS011;58645;43.068;25.610;2022-08-03T12:54:08;2.40;;;1.23;;
70985;SDS011;58645;43.068;25.610;2022-08-03T12:59:27;4.15;;;1.30;;
70985;SDS011;58645;43.068;25.610;2022-08-03T13:01:58;2.03;;;1.25;;
70985;SDS011;58645;43.068;25.610;2022-08-03T13:04:34;2.83;;;1.20;;
70985;SDS011;58645;43.068;25.610;2022-08-03T13:07:01;1.92;;;1.08;;
70985;SDS011;58645;43.068;25.610;2022-08-03T13:09:29;1.33;;;1.02;;
70985;SDS011;58645;43.068;25.610;2022-08-03T13:12:19;1.30;;;1.10;;
70985;SDS011;58645;43.068;25.610;2022-08-03T13:14:51;1.83;;;1.20;;
70985;SDS011;58645;43.068;25.610;2022-08-03T13:17:22;1.38;;;1.00;;
70985;SDS011;58645;43.068;25.610;2022-08-03T13:19:48;2.20;;;1.10;;
70985;SDS011;58645;43.068;25.610;2022-08-03T13:22:16;2.85;;;1.10;;
70985;SDS011;58645;43.068;25.610;2022-08-03T13:24:51;1.27;;;1.10;;
70985;SDS011;58645;43.068;25.610;2022-08-03T13:27:20;2.13;;;1.17;;
70985;SDS011;58645;43.068;25.610;2022-08-03T13:29:46;4.13;;;1.10;;
70985;SDS011;58645;43.068;25.610;2022-08-03T13:32:12;2.53;;;1.25;;
70985;SDS011;58645;43.068;25.610;2022-08-03T13:34:38;1.75;;;1.17;;
70985;SDS011;58645;43.068;25.610;2022-08-03T13:37:04;2.08;;;1.00;;
70985;SDS011;58645;43.068;25.610;2022-08-03T13:39:30;2.35;;;1.30;;
70985;SDS011;58645;43.068;25.610;2022-08-03T13:41:55;1.52;;;1.15;;
70985;SDS011;58645;43.068;25.610;2022-08-03T13:44:21;5.50;;;1.42;;
70985;SDS011;58645;43.068;25.610;2022-08-03T13:46:47;1.60;;;1.23;;
70985;SDS011;58645;43.068;25.610;2022-08-03T13:49:14;1.50;;;1.17;;
70985;SDS011;58645;43.068;25.610;2022-08-03T13:51:40;1.65;;;1.13;;
70985;SDS011;58645;43.068;25.610;2022-08-03T13:54:06;2.35;;;1.30;;
70985;SDS011;58645;43.068;25.610;2022-08-03T13:56:31;1.65;;;1.20;;
70985;SDS011;58645;43.068;25.610;2022-08-03T13:58:57;3.85;;;1.08;;
70985;SDS011;58645;43.068;25.610;2022-08-03T14:01:23;1.40;;;1.15;;
70985;SDS011;58645;43.068;25.610;2022-08-03T14:03:49;1.42;;;0.85;;
70985;SDS011;58645;43.068;25.610;2022-08-03T14:06:21;1.90;;;1.42;;
70985;SDS011;58645;43.068;25.610;2022-08-03T14:08:47;3.25;;;1.33;;
70985;SDS011;58645;43.068;25.610;2022-08-03T14:11:14;2.63;;;1.63;;
70985;SDS011;58645;43.068;25.610;2022-08-03T14:13:40;2.20;;;1.13;;
70985;SDS011;58645;43.068;25.610;2022-08-03T14:16:06;1.80;;;1.25;;
70985;SDS011;58645;43.068;25.610;2022-08-03T14:18:32;3.75;;;1.60;;
70985;SDS011;58645;43.068;25.610;2022-08-03T14:20:58;2.53;;;1.45;;
70985;SDS011;58645;43.068;25.610;2022-08-03T14:23:28;2.50;;;1.30;;
70985;SDS011;58645;43.068;25.610;2022-08-03T14:25:54;2.00;;;1.60;;
70985;SDS011;58645;43.068;25.610;2022-08-03T14:28:20;3.55;;;1.33;;
70985;SDS011;58645;43.068;25.610;2022-08-03T14:30:47;3.35;;;1.50;;
70985;SDS011;58645;43.068;25.610;2022-08-03T14:33:13;2.05;;;1.58;;
70985;SDS011;58645;43.068;25.610;2022-08-03T14:35:39;2.22;;;1.55;;
70985;SDS011;58645;43.068;25.610;2022-08-03T14:38:05;2.40;;;1.65;;
70985;SDS011;58645;43.068;25.610;2022-08-03T14:40:31;3.08;;;1.42;;
70985;SDS011;58645;43.068;25.610;2022-08-03T14:42:57;2.25;;;1.30;;
70985;SDS011;58645;43.068;25.610;2022-08-03T14:45:22;2.53;;;1.33;;
70985;SDS011;58645;43.068;25.610;2022-08-03T14:47:48;3.25;;;1.40;;
70985;SDS011;58645;43.068;25.610;2022-08-03T14:50:15;1.92;;;1.63;;
70985;SDS011;58645;43.068;25.610;2022-08-03T14:52:41;1.63;;;1.30;;
70985;SDS011;58645;43.068;25.610;2022-08-03T14:55:07;3.42;;;1.20;;
70985;SDS011;58645;43.068;25.610;2022-08-03T14:57:33;2.15;;;1.40;;
70985;SDS011;58645;43.068;25.610;2022-08-03T15:00:01;2.72;;;1.40;;
70985;SDS011;58645;43.068;25.610;2022-08-03T15:02:28;3.17;;;1.10;;
70985;SDS011;58645;43.068;25.610;2022-08-03T15:04:54;1.63;;;1.23;;
70985;SDS011;58645;43.068;25.610;2022-08-03T15:07:20;1.70;;;1.25;;
70985;SDS011;58645;43.068;25.610;2022-08-03T15:09:46;2.42;;;1.20;;
70985;SDS011;58645;43.068;25.610;2022-08-03T15:12:12;2.55;;;1.25;;
70985;SDS011;58645;43.068;25.610;2022-08-03T15:14:38;3.58;;;1.50;;
70985;SDS011;58645;43.068;25.610;2022-08-03T15:17:04;1.83;;;1.20;;
70985;SDS011;58645;43.068;25.610;2022-08-03T15:19:30;1.63;;;1.05;;
70985;SDS011;58645;43.068;25.610;2022-08-03T15:21:56;5.18;;;1.42;;
70985;SDS011;58645;43.068;25.610;2022-08-03T15:24:22;2.88;;;1.38;;
70985;SDS011;58645;43.068;25.610;2022-08-03T15:26:49;2.08;;;1.10;;
70985;SDS011;58645;43.068;25.610;2022-08-03T15:29:16;2.67;;;0.98;;
70985;SDS011;58645;43.068;25.610;2022-08-03T15:31:42;1.70;;;1.15;;
70985;SDS011;58645;43.068;25.610;2022-08-03T15:34:08;2.10;;;1.10;;
70985;SDS011;58645;43.068;25.610;2022-08-03T15:36:35;1.85;;;1.23;;
70985;SDS011;58645;43.068;25.610;2022-08-03T15:39:01;1.70;;;1.33;;
70985;SDS011;58645;43.068;25.610;2022-08-03T15:41:27;3.95;;;1.30;;
70985;SDS011;58645;43.068;25.610;2022-08-03T15:43:56;2.28;;;1.27;;
70985;SDS011;58645;43.068;25.610;2022-08-03T15:46:22;1.58;;;1.23;;
70985;SDS011;58645;43.068;25.610;2022-08-03T15:48:48;1.48;;;1.23;;
70985;SDS011;58645;43.068;25.610;2022-08-03T15:51:14;2.25;;;1.50;;
70985;SDS011;58645;43.068;25.610;2022-08-03T15:53:40;3.08;;;1.38;;
70985;SDS011;58645;43.068;25.610;2022-08-03T15:56:06;1.75;;;1.42;;
70985;SDS011;58645;43.068;25.610;2022-08-03T15:58:34;3.15;;;1.30;;
70985;SDS011;58645;43.068;25.610;2022-08-03T16:01:04;2.63;;;1.27;;
70985;SDS011;58645;43.068;25.610;2022-08-03T16:03:31;3.83;;;1.20;;
70985;SDS011;58645;43.068;25.610;2022-08-03T16:06:00;1.80;;;1.58;;
70985;SDS011;58645;43.068;25.610;2022-08-03T16:08:30;2.80;;;1.52;;
70985;SDS011;58645;43.068;25.610;2022-08-03T16:10:57;2.40;;;1.52;;
70985;SDS011;58645;43.068;25.610;2022-08-03T16:13:24;2.83;;;2.03;;
70985;SDS011;58645;43.068;25.610;2022-08-03T16:15:51;2.70;;;1.83;;
70985;SDS011;58645;43.068;25.610;2022-08-03T16:18:18;6.88;;;2.15;;
70985;SDS011;58645;43.068;25.610;2022-08-03T16:20:44;4.78;;;2.17;;